createdAt,value
2018-04-02T00:00:08.556Z,96.02
2018-04-02T00:02:35.944Z,96.02
2018-04-02T00:05:03.349Z,95.91
2018-04-02T00:07:30.734Z,95.77
2018-04-02T00:09:58.264Z,94.33
2018-04-02T00:12:25.660Z,94.55
2018-04-02T00:14:53.044Z,94.76
2018-04-02T00:17:20.438Z,95.32
2018-04-02T00:19:47.821Z,95.67
2018-04-02T00:22:15.279Z,95.57
2018-04-02T00:24:42.664Z,95.63
2018-04-02T00:27:10.049Z,95.71
2018-04-02T00:29:37.449Z,95.74
2018-04-02T00:32:04.830Z,95.85
2018-04-02T00:34:32.264Z,95.77
2018-04-02T00:36:59.661Z,95.90
2018-04-02T00:39:27.047Z,96.09
2018-04-02T00:41:54.809Z,96.04
2018-04-02T00:44:22.189Z,96.04
2018-04-02T00:46:49.570Z,96.12
2018-04-02T00:49:16.964Z,96.08
2018-04-02T00:51:44.393Z,96.17
2018-04-02T00:54:11.780Z,96.62
2018-04-02T00:56:39.162Z,96.73
2018-04-02T00:59:06.548Z,96.55
2018-04-02T01:01:33.934Z,96.26
2018-04-02T01:04:01.317Z,95.96
2018-04-02T01:06:28.707Z,96.14
2018-04-02T01:08:56.092Z,96.08
2018-04-02T01:11:23.469Z,96.07
2018-04-02T01:13:50.860Z,96.08
2018-04-02T01:16:18.249Z,96.12
2018-04-02T01:18:45.636Z,96.28
2018-04-02T01:21:13.012Z,96.10
2018-04-02T01:23:40.400Z,95.96
2018-04-02T01:26:07.785Z,95.87
2018-04-02T01:28:35.181Z,95.77
2018-04-02T01:31:02.570Z,96.14
2018-04-02T01:33:29.952Z,96.61
2018-04-02T01:35:57.328Z,96.68
2018-04-02T01:38:24.717Z,96.79
2018-04-02T01:40:52.109Z,97.12
2018-04-02T01:43:19.801Z,97.10
2018-04-02T01:45:47.181Z,96.97
2018-04-02T01:48:14.568Z,96.83
2018-04-02T01:50:41.965Z,96.92
2018-04-02T01:53:09.407Z,96.94
2018-04-02T01:55:36.805Z,96.57
2018-04-02T01:58:04.193Z,96.91
2018-04-02T02:00:31.572Z,96.57
2018-04-02T02:02:58.959Z,96.49
2018-04-02T02:05:26.339Z,96.41
2018-04-02T02:07:53.728Z,96.72
2018-04-02T02:10:21.116Z,97.09
2018-04-02T02:12:48.504Z,96.96
2018-04-02T02:15:15.888Z,96.73
2018-04-02T02:17:43.293Z,96.95
2018-04-02T02:20:10.684Z,97.08
2018-04-02T02:22:38.064Z,97.34
2018-04-02T02:25:05.456Z,98.01
2018-04-02T02:27:32.832Z,98.15
2018-04-02T02:30:00.224Z,98.08
2018-04-02T02:32:27.596Z,98.27
2018-04-02T02:34:54.984Z,98.54
2018-04-02T02:37:22.368Z,98.56
2018-04-02T02:39:50.085Z,98.55
2018-04-02T02:42:17.556Z,98.52
2018-04-02T02:44:44.941Z,98.53
2018-04-02T02:47:12.337Z,98.51
2018-04-02T02:49:39.753Z,98.48
2018-04-02T02:52:07.158Z,98.40
2018-04-02T02:54:34.539Z,98.62
2018-04-02T02:57:01.928Z,99.06
2018-04-02T02:59:29.313Z,99.36
2018-04-02T03:01:56.704Z,99.15
2018-04-02T03:04:24.137Z,99.74
2018-04-02T03:06:51.463Z,100.00
2018-04-02T03:09:18.862Z,100.00
2018-04-02T03:11:46.268Z,100.00
2018-04-02T03:14:13.666Z,100.00
2018-04-02T03:16:41.060Z,100.00
2018-04-02T03:19:08.529Z,100.00
2018-04-02T03:21:35.930Z,100.00
2018-04-02T03:24:03.392Z,100.00
2018-04-02T03:26:30.809Z,100.00
2018-04-02T03:28:58.164Z,100.00
2018-04-02T03:31:25.573Z,100.00
2018-04-02T03:33:53.052Z,100.00
2018-04-02T03:36:20.450Z,100.00
2018-04-02T03:38:47.847Z,100.00
2018-04-02T03:41:15.252Z,100.00
2018-04-02T03:43:42.656Z,100.00
2018-04-02T03:46:10.054Z,99.86
2018-04-02T03:48:37.436Z,100.00
2018-04-02T03:51:04.820Z,99.67
2018-04-02T03:53:32.220Z,100.00
2018-04-02T03:56:00.225Z,99.96
2018-04-02T03:58:27.285Z,99.70
2018-04-02T04:00:54.740Z,99.43
2018-04-02T04:03:22.128Z,99.22
2018-04-02T04:05:49.529Z,99.15
2018-04-02T04:08:16.908Z,99.18
2018-04-02T04:10:44.299Z,99.38
2018-04-02T04:13:11.784Z,99.67
2018-04-02T04:15:39.152Z,99.61
2018-04-02T04:18:06.540Z,99.48
2018-04-02T04:20:33.936Z,99.40
2018-04-02T04:23:01.314Z,99.56
2018-04-02T04:25:28.696Z,99.90
2018-04-02T04:27:56.087Z,99.94
2018-04-02T04:30:23.473Z,99.73
2018-04-02T04:32:50.864Z,99.71
2018-04-02T04:35:18.245Z,99.69
2018-04-02T04:37:45.646Z,99.13
2018-04-02T04:40:13.073Z,99.33
2018-04-02T04:42:40.417Z,99.50
2018-04-02T04:45:07.800Z,99.40
2018-04-02T04:47:35.195Z,99.46
2018-04-02T04:50:02.584Z,99.45
2018-04-02T04:52:29.977Z,99.02
2018-04-02T04:54:57.360Z,99.16
2018-04-02T04:57:24.752Z,99.21
2018-04-02T04:59:52.152Z,99.63
2018-04-02T05:02:19.640Z,99.73
2018-04-02T05:04:47.136Z,99.70
2018-04-02T05:07:14.513Z,99.35
2018-04-02T05:09:41.899Z,99.41
2018-04-02T05:12:09.293Z,99.69
2018-04-02T05:14:36.679Z,99.65
2018-04-02T05:17:04.076Z,99.57
2018-04-02T05:19:31.460Z,99.54
2018-04-02T05:21:58.884Z,99.32
2018-04-02T05:24:26.265Z,99.17
2018-04-02T05:26:53.692Z,99.07
2018-04-02T05:29:21.077Z,98.45
2018-04-02T05:31:48.476Z,98.47
2018-04-02T05:34:15.885Z,98.43
2018-04-02T05:36:43.274Z,98.32
2018-04-02T05:39:10.668Z,97.96
2018-04-02T05:41:38.041Z,98.00
2018-04-02T05:44:05.482Z,98.05
2018-04-02T05:46:32.954Z,97.49
2018-04-02T05:49:00.344Z,97.39
2018-04-02T05:51:27.785Z,96.98
2018-04-02T05:53:55.177Z,96.69
2018-04-02T05:56:22.589Z,96.25
2018-04-02T05:58:50.000Z,96.26
2018-04-02T06:01:17.378Z,95.81
2018-04-02T06:03:44.762Z,95.67
2018-04-02T06:06:12.226Z,95.60
2018-04-02T06:08:39.602Z,96.00
2018-04-02T06:11:07.000Z,95.62
2018-04-02T06:13:34.407Z,95.74
2018-04-02T06:16:01.785Z,95.26
2018-04-02T06:18:29.204Z,95.46
2018-04-02T06:20:56.588Z,95.28
2018-04-02T06:23:23.968Z,95.28
2018-04-02T06:25:51.381Z,94.69
2018-04-02T06:28:18.801Z,94.63
2018-04-02T06:30:46.160Z,95.11
2018-04-02T06:33:14.077Z,94.71
2018-04-02T06:35:41.444Z,94.89
2018-04-02T06:38:08.828Z,94.87
2018-04-02T06:40:36.249Z,94.20
2018-04-02T06:43:03.612Z,93.87
2018-04-02T06:45:31.065Z,93.01
2018-04-02T06:47:58.436Z,92.46
2018-04-02T06:50:25.824Z,92.64
2018-04-02T06:52:53.218Z,92.60
2018-04-02T06:55:20.931Z,91.35
2018-04-02T06:57:48.317Z,91.53
2018-04-02T07:00:15.697Z,91.44
2018-04-02T07:02:43.096Z,90.30
2018-04-02T07:05:10.479Z,90.97
2018-04-02T07:07:38.029Z,90.58
2018-04-02T07:10:05.394Z,90.65
2018-04-02T07:12:32.784Z,90.17
2018-04-02T07:15:00.160Z,89.54
2018-04-02T07:17:27.582Z,90.06
2018-04-02T07:19:54.938Z,89.96
2018-04-02T07:22:22.352Z,88.35
2018-04-02T07:24:49.740Z,88.75
2018-04-02T07:27:17.127Z,88.62
2018-04-02T07:29:44.607Z,87.49
2018-04-02T07:32:11.983Z,87.46
2018-04-02T07:34:39.424Z,86.75
2018-04-02T07:37:06.813Z,87.09
2018-04-02T07:39:34.193Z,86.44
2018-04-02T07:42:01.592Z,87.69
2018-04-02T07:44:28.974Z,86.98
2018-04-02T07:46:56.362Z,86.72
2018-04-02T07:49:23.740Z,85.26
2018-04-02T07:51:51.140Z,85.81
2018-04-02T07:54:18.531Z,84.98
2018-04-02T07:56:45.911Z,83.26
2018-04-02T07:59:13.293Z,84.00
2018-04-02T08:01:40.689Z,84.63
2018-04-02T08:04:08.068Z,83.01
2018-04-02T08:06:35.444Z,82.32
2018-04-02T08:09:02.832Z,83.16
2018-04-02T08:11:30.212Z,81.07
2018-04-02T08:13:57.614Z,80.64
2018-04-02T08:16:24.981Z,81.93
2018-04-02T08:18:52.454Z,80.29
2018-04-02T08:21:19.861Z,78.83
2018-04-02T08:23:47.222Z,79.34
2018-04-02T08:26:14.608Z,79.19
2018-04-02T08:28:41.993Z,77.57
2018-04-02T08:31:09.376Z,78.53
2018-04-02T08:33:36.770Z,78.37
2018-04-02T08:36:04.224Z,78.57
2018-04-02T08:38:31.601Z,77.79
2018-04-02T08:40:58.982Z,77.21
2018-04-02T08:43:26.448Z,76.00
2018-04-02T08:45:53.824Z,76.06
2018-04-02T08:48:21.198Z,76.80
2018-04-02T08:50:48.584Z,77.48
2018-04-02T08:53:15.999Z,78.31
2018-04-02T08:55:43.384Z,76.02
2018-04-02T08:58:10.767Z,74.76
2018-04-02T09:00:38.172Z,74.00
2018-04-02T09:03:05.589Z,73.69
2018-04-02T09:05:32.960Z,73.17
2018-04-02T09:08:00.382Z,74.12
2018-04-02T09:10:27.790Z,73.71
2018-04-02T09:12:55.181Z,75.98
2018-04-02T09:15:22.556Z,73.00
2018-04-02T09:17:49.957Z,71.58
2018-04-02T09:20:17.345Z,70.57
2018-04-02T09:22:44.737Z,72.84
2018-04-02T09:25:12.131Z,70.15
2018-04-02T09:27:39.528Z,70.99
2018-04-02T09:30:06.916Z,71.80
2018-04-02T09:32:34.306Z,71.43
2018-04-02T09:35:01.685Z,70.80
2018-04-02T09:37:29.072Z,72.21
2018-04-02T09:39:56.472Z,68.95
2018-04-02T09:42:23.849Z,68.70
2018-04-02T09:44:51.242Z,67.34
2018-04-02T09:47:18.629Z,66.83
2018-04-02T09:49:46.016Z,65.86
2018-04-02T09:52:13.424Z,66.83
2018-04-02T09:54:40.820Z,66.68
2018-04-02T09:57:08.200Z,66.70
2018-04-02T09:59:35.588Z,64.90
2018-04-02T10:02:08.464Z,63.02
2018-04-02T10:04:35.947Z,63.06
2018-04-02T10:07:03.254Z,65.07
2018-04-02T10:09:30.636Z,65.60
2018-04-02T10:11:58.072Z,60.87
2018-04-02T10:14:25.457Z,62.41
2018-04-02T10:16:52.840Z,63.98
2018-04-02T10:19:20.237Z,61.71
2018-04-02T10:21:47.616Z,62.33
2018-04-02T10:24:15.012Z,61.60
2018-04-02T10:26:42.433Z,61.47
2018-04-02T10:29:09.819Z,59.04
2018-04-02T10:31:37.197Z,59.60
2018-04-02T10:34:05.036Z,60.14
2018-04-02T10:36:32.425Z,58.84
2018-04-02T10:38:59.887Z,61.30
2018-04-02T10:41:27.281Z,60.92
2018-04-02T10:43:54.704Z,60.19
2018-04-02T10:46:22.103Z,55.34
2018-04-02T10:48:49.484Z,55.02
2018-04-02T10:51:16.891Z,56.04
2018-04-02T10:53:44.273Z,55.63
2018-04-02T10:56:11.673Z,54.96
2018-04-02T10:58:39.064Z,54.21
2018-04-02T11:01:06.446Z,52.76
2018-04-02T11:03:33.832Z,53.28
2018-04-02T11:06:01.237Z,54.98
2018-04-02T11:08:28.628Z,53.54
2018-04-02T11:10:55.991Z,54.10
2018-04-02T11:13:23.402Z,53.98
2018-04-02T11:15:50.799Z,51.39
2018-04-02T11:18:18.188Z,55.05
2018-04-02T11:20:45.574Z,54.14
2018-04-02T11:23:12.970Z,55.33
2018-04-02T11:25:40.400Z,53.42
2018-04-02T11:28:07.769Z,53.53
2018-04-02T11:30:35.153Z,54.28
2018-04-02T11:33:02.545Z,54.70
2018-04-02T11:35:29.942Z,54.73
2018-04-02T11:37:57.328Z,54.13
2018-04-02T11:40:24.720Z,54.24
2018-04-02T11:42:52.114Z,54.19
2018-04-02T11:45:19.496Z,55.07
2018-04-02T11:47:46.938Z,54.21
2018-04-02T11:50:14.304Z,53.63
2018-04-02T11:52:41.698Z,54.02
2018-04-02T11:55:09.100Z,54.30
2018-04-02T11:57:36.492Z,53.26
2018-04-02T12:00:03.876Z,54.68
2018-04-02T12:02:31.306Z,53.83
2018-04-02T12:04:58.684Z,52.34
2018-04-02T12:07:26.085Z,54.85
2018-04-02T12:09:53.495Z,52.42
2018-04-02T12:12:20.878Z,50.67
2018-04-02T12:14:48.274Z,53.39
2018-04-02T12:17:15.665Z,51.00
2018-04-02T12:19:43.058Z,50.68
2018-04-02T12:22:10.452Z,51.50
2018-04-02T12:24:38.153Z,53.16
2018-04-02T12:27:05.532Z,51.01
2018-04-02T12:29:32.912Z,51.73
2018-04-02T12:32:00.304Z,51.62
2018-04-02T12:34:27.709Z,51.85
2018-04-02T12:36:55.096Z,52.96
2018-04-02T12:39:22.480Z,52.20
2018-04-02T12:41:49.875Z,52.97
2018-04-02T12:44:17.276Z,52.49
2018-04-02T12:46:44.649Z,51.50
2018-04-02T12:49:12.047Z,52.99
2018-04-02T12:51:39.446Z,52.30
2018-04-02T12:54:06.840Z,52.98
2018-04-02T12:56:34.229Z,52.42
2018-04-02T12:59:01.672Z,50.97
2018-04-02T13:01:29.022Z,53.10
2018-04-02T13:03:56.415Z,52.39
2018-04-02T13:06:23.793Z,51.31
2018-04-02T13:08:51.196Z,52.34
2018-04-02T13:11:18.581Z,51.74
2018-04-02T13:13:45.965Z,50.77
2018-04-02T13:16:13.356Z,51.08
2018-04-02T13:18:40.739Z,51.49
2018-04-02T13:21:08.129Z,51.60
2018-04-02T13:23:35.538Z,52.53
2018-04-02T13:26:02.924Z,52.66
2018-04-02T13:28:30.313Z,53.29
2018-04-02T13:30:57.706Z,52.12
2018-04-02T13:33:25.162Z,51.55
2018-04-02T13:35:52.479Z,53.00
2018-04-02T13:38:19.895Z,50.19
2018-04-02T13:40:47.264Z,49.78
2018-04-02T13:43:14.664Z,51.61
2018-04-02T13:45:42.070Z,52.09
2018-04-02T13:48:09.461Z,49.56
2018-04-02T13:50:36.853Z,49.53
2018-04-02T13:53:04.236Z,49.93
2018-04-02T13:55:31.633Z,48.22
2018-04-02T13:57:59.012Z,47.54
2018-04-02T14:00:26.407Z,48.97
2018-04-02T14:02:53.821Z,48.85
2018-04-02T14:05:21.205Z,48.54
2018-04-02T14:07:48.593Z,48.49
2018-04-02T14:10:15.985Z,46.46
2018-04-02T14:12:43.372Z,47.29
2018-04-02T14:15:10.776Z,47.65
2018-04-02T14:17:38.162Z,48.39
2018-04-02T14:20:05.540Z,46.88
2018-04-02T14:22:32.932Z,48.61
2018-04-02T14:25:00.313Z,49.67
2018-04-02T14:27:27.708Z,47.90
2018-04-02T14:29:55.101Z,49.63
2018-04-02T14:32:22.492Z,50.59
2018-04-02T14:34:49.878Z,51.15
2018-04-02T14:37:17.256Z,54.87
2018-04-02T14:39:44.644Z,56.23
2018-04-02T14:42:12.037Z,53.85
2018-04-02T14:44:39.465Z,54.57
2018-04-02T14:47:06.804Z,50.32
2018-04-02T14:49:34.192Z,50.04
2018-04-02T14:52:01.580Z,51.53
2018-04-02T14:54:28.988Z,50.45
2018-04-02T14:56:56.368Z,51.05
2018-04-02T14:59:23.756Z,53.19
2018-04-02T15:01:51.149Z,51.29
2018-04-02T15:04:18.533Z,49.55
2018-04-02T15:06:45.912Z,48.46
2018-04-02T15:09:13.292Z,50.03
2018-04-02T15:11:40.685Z,49.65
2018-04-02T15:14:08.061Z,50.73
2018-04-02T15:16:35.451Z,51.33
2018-04-02T15:19:02.828Z,49.32
2018-04-02T15:21:30.208Z,51.92
2018-04-02T15:23:57.596Z,49.40
2018-04-02T15:26:24.992Z,50.74
2018-04-02T15:28:52.368Z,51.00
2018-04-02T15:31:19.788Z,50.84
2018-04-02T15:33:47.180Z,50.44
2018-04-02T15:36:15.516Z,50.59
2018-04-02T15:38:42.895Z,49.79
2018-04-02T15:41:10.334Z,51.12
2018-04-02T15:43:37.712Z,53.45
2018-04-02T15:46:05.096Z,53.64
2018-04-02T15:48:32.485Z,53.97
2018-04-02T15:50:59.876Z,54.49
2018-04-02T15:53:27.248Z,54.73
2018-04-02T15:55:54.645Z,54.72
2018-04-02T15:58:22.019Z,53.02
2018-04-02T16:00:49.404Z,52.29
2018-04-02T16:03:16.811Z,52.85
2018-04-02T16:05:44.183Z,53.46
2018-04-02T16:08:11.583Z,54.55
2018-04-02T16:10:38.957Z,53.52
2018-04-02T16:13:06.352Z,54.80
2018-04-02T16:15:33.740Z,54.68
2018-04-02T16:18:01.181Z,54.43
2018-04-02T16:20:28.579Z,54.94
2018-04-02T16:22:55.967Z,54.72
2018-04-02T16:25:23.356Z,55.31
2018-04-02T16:27:50.744Z,56.40
2018-04-02T16:30:18.140Z,56.06
2018-04-02T16:32:45.613Z,55.71
2018-04-02T16:35:13.007Z,55.92
2018-04-02T16:37:40.394Z,56.02
2018-04-02T16:40:07.784Z,56.09
2018-04-02T16:42:35.232Z,55.59
2018-04-02T16:45:02.544Z,55.93
2018-04-02T16:47:29.945Z,56.35
2018-04-02T16:49:57.339Z,55.81
2018-04-02T16:52:24.784Z,54.65
2018-04-02T16:54:52.172Z,55.28
2018-04-02T16:57:19.575Z,56.17
2018-04-02T16:59:46.958Z,55.68
2018-04-02T17:02:14.341Z,56.22
2018-04-02T17:04:41.737Z,55.43
2018-04-02T17:07:09.160Z,54.87
2018-04-02T17:09:36.640Z,55.21
2018-04-02T17:12:04.028Z,54.76
2018-04-02T17:14:31.424Z,54.71
2018-04-02T17:16:58.792Z,54.78
2018-04-02T17:19:26.200Z,55.62
2018-04-02T17:21:53.604Z,55.80
2018-04-02T17:24:20.992Z,55.76
2018-04-02T17:26:48.377Z,57.12
2018-04-02T17:29:15.763Z,56.88
2018-04-02T17:31:43.160Z,58.80
2018-04-02T17:34:10.562Z,56.72
2018-04-02T17:36:37.933Z,57.64
2018-04-02T17:39:06.175Z,56.65
2018-04-02T17:41:33.564Z,56.14
2018-04-02T17:44:00.949Z,58.72
2018-04-02T17:46:28.365Z,61.69
2018-04-02T17:48:55.752Z,59.32
2018-04-02T17:51:23.145Z,60.35
2018-04-02T17:53:50.525Z,61.96
2018-04-02T17:56:17.916Z,63.24
2018-04-02T17:58:45.312Z,63.59
2018-04-02T18:01:12.689Z,63.47
2018-04-02T18:03:40.080Z,62.10
2018-04-02T18:06:07.492Z,62.62
2018-04-02T18:08:34.911Z,63.06
2018-04-02T18:11:02.300Z,64.19
2018-04-02T18:13:29.693Z,65.13
2018-04-02T18:15:57.120Z,67.22
2018-04-02T18:18:24.500Z,66.89
2018-04-02T18:20:51.908Z,68.07
2018-04-02T18:23:19.282Z,66.84
2018-04-02T18:25:46.664Z,71.42
2018-04-02T18:28:14.057Z,69.78
2018-04-02T18:30:41.504Z,72.08
2018-04-02T18:33:08.959Z,73.55
2018-04-02T18:35:36.331Z,74.34
2018-04-02T18:38:03.758Z,74.50
2018-04-02T18:40:31.217Z,75.79
2018-04-02T18:42:58.634Z,75.85
2018-04-02T18:45:26.048Z,75.96
2018-04-02T18:47:53.465Z,76.64
2018-04-02T18:50:20.868Z,75.79
2018-04-02T18:52:48.268Z,76.85
2018-04-02T18:55:15.733Z,77.87
2018-04-02T18:57:43.242Z,78.06
2018-04-02T19:00:10.641Z,78.69
2018-04-02T19:02:38.032Z,78.57
2018-04-02T19:05:05.457Z,79.74
2018-04-02T19:07:32.853Z,81.05
2018-04-02T19:10:00.542Z,80.68
2018-04-02T19:12:27.929Z,81.48
2018-04-02T19:14:55.333Z,82.32
2018-04-02T19:17:22.733Z,81.14
2018-04-02T19:19:50.117Z,81.13
2018-04-02T19:22:17.554Z,82.80
2018-04-02T19:24:44.957Z,83.08
2018-04-02T19:27:12.353Z,82.42
2018-04-02T19:29:39.846Z,83.17
2018-04-02T19:32:07.327Z,82.16
2018-04-02T19:34:34.717Z,83.04
2018-04-02T19:37:02.116Z,83.31
2018-04-02T19:39:29.502Z,82.33
2018-04-02T19:41:56.892Z,82.97
2018-04-02T19:44:24.285Z,83.46
2018-04-02T19:46:51.665Z,84.31
2018-04-02T19:49:19.068Z,83.24
2018-04-02T19:51:47.152Z,83.54
2018-04-02T19:54:14.528Z,83.29
2018-04-02T19:56:41.932Z,82.52
2018-04-02T19:59:09.333Z,82.10
2018-04-02T20:01:36.724Z,81.26
2018-04-02T20:04:04.103Z,82.42
2018-04-02T20:06:31.510Z,80.16
2018-04-02T20:08:58.889Z,80.79
2018-04-02T20:11:26.298Z,81.04
2018-04-02T20:13:53.669Z,79.79
2018-04-02T20:16:21.056Z,81.17
2018-04-02T20:18:48.447Z,79.72
2018-04-02T20:21:15.845Z,79.88
2018-04-02T20:23:43.224Z,80.16
2018-04-02T20:26:10.596Z,81.68
2018-04-02T20:28:37.996Z,82.31
2018-04-02T20:31:05.389Z,79.97
2018-04-02T20:33:32.847Z,79.96
2018-04-02T20:36:00.240Z,81.39
2018-04-02T20:38:27.640Z,82.68
2018-04-02T20:40:55.031Z,82.60
2018-04-02T20:43:22.430Z,83.19
2018-04-02T20:45:49.802Z,81.77
2018-04-02T20:48:17.189Z,81.63
2018-04-02T20:50:44.577Z,82.95
2018-04-02T20:53:12.012Z,82.65
2018-04-02T20:55:39.396Z,82.53
2018-04-02T20:58:06.793Z,82.55
2018-04-02T21:00:34.176Z,83.53
2018-04-02T21:03:01.581Z,83.76
2018-04-02T21:05:28.964Z,83.51
2018-04-02T21:07:56.361Z,83.53
2018-04-02T21:10:23.764Z,83.08
2018-04-02T21:12:51.151Z,82.08
2018-04-02T21:15:18.612Z,82.20
2018-04-02T21:17:45.992Z,81.44
2018-04-02T21:20:13.397Z,80.64
2018-04-02T21:22:40.780Z,80.43
2018-04-02T21:25:08.162Z,80.63
2018-04-02T21:27:35.564Z,81.46
2018-04-02T21:30:02.948Z,81.10
2018-04-02T21:32:30.332Z,82.34
2018-04-02T21:34:57.727Z,83.20
2018-04-02T21:37:25.108Z,82.98
2018-04-02T21:39:52.500Z,83.40
2018-04-02T21:42:19.899Z,82.74
2018-04-02T21:44:47.292Z,82.61
2018-04-02T21:47:14.680Z,80.75
2018-04-02T21:49:42.085Z,81.14
2018-04-02T21:52:09.473Z,77.40
2018-04-02T21:54:36.853Z,78.85
2018-04-02T21:57:04.244Z,78.91
2018-04-02T21:59:31.657Z,77.80
2018-04-02T22:01:59.053Z,78.15
2018-04-02T22:04:26.444Z,77.49
2018-04-02T22:07:05.507Z,77.01
2018-04-02T22:09:32.888Z,77.42
2018-04-02T22:12:00.284Z,77.38
2018-04-02T22:14:27.675Z,76.24
2018-04-02T22:16:55.055Z,73.89
2018-04-02T22:19:22.447Z,74.52
2018-04-02T22:21:49.836Z,75.54
2018-04-02T22:24:17.216Z,74.30
2018-04-02T22:26:44.608Z,75.33
2018-04-02T22:29:12.002Z,73.65
2018-04-02T22:31:39.380Z,74.69
2018-04-02T22:34:06.785Z,74.71
2018-04-02T22:36:34.165Z,72.82
2018-04-02T22:39:01.574Z,73.47
2018-04-02T22:41:28.961Z,73.43
2018-04-02T22:43:56.341Z,73.61
2018-04-02T22:46:23.732Z,74.37
2018-04-02T22:48:51.122Z,75.45
2018-04-02T22:51:18.547Z,74.23
2018-04-02T22:53:45.936Z,73.40
2018-04-02T22:56:13.357Z,73.39
2018-04-02T22:58:40.735Z,73.20
2018-04-02T23:01:08.139Z,73.23
2018-04-02T23:03:35.509Z,74.12
2018-04-02T23:06:02.935Z,75.08
2018-04-02T23:08:30.336Z,75.54
2018-04-02T23:10:57.709Z,74.37
2018-04-02T23:13:25.111Z,75.69
2018-04-02T23:15:52.501Z,76.92
2018-04-02T23:18:19.920Z,78.56
2018-04-02T23:20:47.305Z,79.98
2018-04-02T23:23:14.680Z,80.30
2018-04-02T23:25:42.072Z,81.16
2018-04-02T23:28:09.470Z,81.63
2018-04-02T23:30:36.859Z,82.48
2018-04-02T23:33:04.240Z,82.14
2018-04-02T23:35:31.625Z,82.74
2018-04-02T23:37:59.016Z,83.80
2018-04-02T23:40:26.408Z,84.80
2018-04-02T23:42:53.795Z,86.46
2018-04-02T23:45:21.180Z,86.32
2018-04-02T23:47:48.576Z,86.52
2018-04-02T23:50:15.982Z,87.15
2018-04-02T23:52:43.365Z,87.33
2018-04-02T23:55:10.753Z,87.27
2018-04-02T23:57:38.156Z,87.58
